Archival Weather

Norman Y Mineta San Jose Intl

San Jose, California (KSJC)

Report from: Sunday, February 11, 2024 4:53 AM PST
Current time: Friday, June 21, 2024 1:05 AM PDT

Current weather – Weather history – Daily summaries
Weather forecast

Temperature7.2°C (45.0°F)
Wind chill6.4°C (43.5°F)
Dew point3.9°C (39.0°F)
Winds 3 kts (1.5 m/s, 3.5 mph) East-Southeast (120°)
Visibility10 mi. (16.1 km)
Clouds Ceiling: Overcast 1,400 ft. (427 m)
Altimeter30.22 in.Hg (1023 mB)
Relative humidity80 %
Density altitude-1,157 ft. (-353 m)
Sea-level pressure102.3 kPa (1023 mB, 30.22 in.Hg)
Remarks Fully automated report
Automated weather observing station with precipitation discriminator
Flight conditions Marginal Visual Meteorological Conditions
Raw dataKSJC 111253Z AUTO 12003KT 10SM OVC014 07/04 A3022 RMK AO2 SLP232 T00720039
An error has occurred. This application may no longer respond until reloaded. Reload 🗙